Time,TemperatureF,DewpointF,PressureIn,WindDirection,WindDirectionDegrees,WindSpeedMPH,WindSpeedGustMPH,Humidity,HourlyPrecipIn,Conditions,Clouds,dailyrainin,SoftwareType,DateUTC
2013-08-26 00:00:00,64.1,60.5,30.24,NE,36,0.0,0.0,88,0.00,,---,0.00,VWS V14.01,2013-08-26 04:00:00,
2013-08-26 00:15:00,63.8,60.2,30.24,NE,35,0.0,0.0,88,0.00,,---,0.00,VWS V14.01,2013-08-26 04:15:00,
2013-08-26 00:30:00,63.6,60.3,30.23,NE,36,0.0,0.0,89,0.00,,---,0.00,VWS V14.01,2013-08-26 04:30:00,
2013-08-26 00:45:00,63.4,60.1,30.23,NE,35,0.0,0.0,89,0.00,,---,0.00,VWS V14.01,2013-08-26 04:45:00,
2013-08-26 01:00:00,63.1,59.5,30.23,NE,35,0.0,0.0,88,0.00,,---,0.00,VWS V14.01,2013-08-26 05:00:00,
2013-08-26 01:15:00,62.9,59.6,30.23,NE,36,0.0,0.0,89,0.00,,---,0.00,VWS V14.01,2013-08-26 05:15:00,
2013-08-26 01:30:00,62.9,59.6,30.23,NE,35,0.0,0.0,89,0.00,,---,0.00,VWS V14.01,2013-08-26 05:30:00,
2013-08-26 01:45:00,62.6,59.3,30.23,NE,36,0.0,0.0,89,0.00,,---,0.00,VWS V14.01,2013-08-26 05:45:00,
2013-08-26 02:00:00,62.5,58.3,30.23,NE,35,0.0,0.0,86,0.00,,---,0.00,VWS V14.01,2013-08-26 06:00:00,
2013-08-26 02:15:00,62.6,58.0,30.22,NE,36,0.0,0.0,85,0.00,,---,0.00,VWS V14.01,2013-08-26 06:15:00,
2013-08-26 02:30:00,62.4,57.8,30.22,NE,36,0.0,0.0,85,0.00,,---,0.00,VWS V14.01,2013-08-26 06:30:00,
2013-08-26 02:45:00,61.8,57.9,30.22,NE,36,0.0,0.0,87,0.00,,---,0.00,VWS V14.01,2013-08-26 06:45:00,
2013-08-26 03:00:00,61.1,57.8,30.22,NE,36,0.0,0.0,89,0.00,,---,0.00,VWS V14.01,2013-08-26 07:00:00,
2013-08-26 03:15:00,60.8,58.2,30.22,NE,36,0.0,0.0,91,0.00,,---,0.00,VWS V14.01,2013-08-26 07:15:00,
2013-08-26 03:30:00,60.4,57.8,30.21,NE,36,0.0,0.0,91,0.00,,---,0.00,VWS V14.01,2013-08-26 07:30:00,
2013-08-26 03:45:00,60.0,57.1,30.21,NE,35,0.0,0.0,90,0.00,,---,0.00,VWS V14.01,2013-08-26 07:45:00,
2013-08-26 04:00:00,60.1,57.5,30.21,NE,36,0.0,0.0,91,0.00,,---,0.00,VWS V14.01,2013-08-26 08:00:00,
2013-08-26 04:15:00,60.6,57.3,30.21,NE,36,0.0,0.0,89,0.00,,---,0.00,VWS V14.01,2013-08-26 08:15:00,
2013-08-26 04:30:00,61.1,57.2,30.21,NNE,32,0.0,1.0,87,0.00,,---,0.00,VWS V14.01,2013-08-26 08:30:00,
2013-08-26 04:45:00,60.7,57.1,30.20,NNE,32,1.0,1.0,88,0.00,,---,0.00,VWS V14.01,2013-08-26 08:45:00,
2013-08-26 05:00:00,59.9,57.0,30.21,NNE,20,0.0,1.0,90,0.00,,---,0.00,VWS V14.01,2013-08-26 09:00:00,
2013-08-26 05:15:00,59.5,56.9,30.21,NNE,20,0.0,1.0,91,0.00,,---,0.00,VWS V14.01,2013-08-26 09:15:00,
2013-08-26 05:30:00,59.3,57.0,30.21,NNE,20,0.0,1.0,92,0.00,,---,0.00,VWS V14.01,2013-08-26 09:30:00,
2013-08-26 05:45:00,59.3,57.3,30.21,NNE,16,0.0,1.0,93,0.00,,---,0.00,VWS V14.01,2013-08-26 09:45:00,
2013-08-26 06:00:00,59.3,57.6,30.21,West,266,0.0,1.0,94,0.00,,---,0.00,VWS V14.01,2013-08-26 10:00:00,
2013-08-26 06:15:00,59.5,58.1,30.20,West,267,0.0,1.0,95,0.00,,---,0.00,VWS V14.01,2013-08-26 10:15:00,
2013-08-26 06:30:00,59.6,58.2,30.20,West,273,0.0,1.0,95,0.00,,---,0.00,VWS V14.01,2013-08-26 10:30:00,
2013-08-26 06:45:00,59.7,58.3,30.20,West,277,0.0,1.0,95,0.00,,---,0.00,VWS V14.01,2013-08-26 10:45:00,
2013-08-26 07:00:00,59.7,58.3,30.20,West,278,0.0,1.0,95,0.00,,---,0.00,VWS V14.01,2013-08-26 11:00:00,
2013-08-26 07:15:00,59.6,58.2,30.20,West,277,0.0,1.0,95,0.00,,---,0.00,VWS V14.01,2013-08-26 11:15:00,
2013-08-26 07:30:00,59.5,58.4,30.20,West,277,0.0,1.0,96,0.00,,---,0.00,VWS V14.01,2013-08-26 11:30:00,
2013-08-26 07:45:00,59.5,58.4,30.21,West,277,0.0,0.0,96,0.00,,---,0.00,VWS V14.01,2013-08-26 11:45:00,
2013-08-26 08:00:00,59.7,58.6,30.21,West,277,0.0,1.0,96,0.00,,---,0.00,VWS V14.01,2013-08-26 12:00:00,
2013-08-26 08:15:00,60.2,59.1,30.22,West,276,0.0,1.0,96,0.00,,---,0.00,VWS V14.01,2013-08-26 12:15:00,
2013-08-26 08:30:00,60.9,59.8,30.22,West,277,0.0,1.0,96,0.00,,---,0.00,VWS V14.01,2013-08-26 12:30:00,
2013-08-26 08:45:00,61.7,60.5,30.22,West,277,0.0,0.0,96,0.00,,---,0.00,VWS V14.01,2013-08-26 12:45:00,
2013-08-26 09:00:00,63.3,61.5,30.23,West,277,0.0,1.0,94,0.00,,---,0.00,VWS V14.01,2013-08-26 13:00:00,
2013-08-26 09:15:00,64.8,62.4,30.23,West,277,0.0,0.0,92,0.00,,---,0.00,VWS V14.01,2013-08-26 13:15:00,
2013-08-26 09:30:00,66.3,63.3,30.23,West,277,0.0,1.0,90,0.00,,---,0.00,VWS V14.01,2013-08-26 13:30:00,
2013-08-26 09:45:00,67.7,64.3,30.23,West,277,0.0,1.0,89,0.00,,---,0.00,VWS V14.01,2013-08-26 13:45:00,
2013-08-26 10:00:00,69.3,64.3,30.24,WSW,257,1.0,3.0,84,0.00,,---,0.00,VWS V14.01,2013-08-26 14:00:00,
2013-08-26 10:15:00,70.3,65.2,30.24,NW,315,0.0,2.0,84,0.00,,---,0.00,VWS V14.01,2013-08-26 14:15:00,
2013-08-26 10:30:00,71.0,63.4,30.24,NNW,330,0.0,4.0,77,0.00,,---,0.00,VWS V14.01,2013-08-26 14:30:00,
2013-08-26 10:45:00,71.9,63.5,30.24,NW,326,1.0,3.0,75,0.00,,---,0.00,VWS V14.01,2013-08-26 14:45:00,
2013-08-26 11:00:00,72.5,62.2,30.24,NNW,340,2.0,3.0,70,0.00,,---,0.00,VWS V14.01,2013-08-26 15:00:00,
2013-08-26 11:15:00,73.0,62.7,30.24,West,274,0.0,2.0,70,0.00,,---,0.00,VWS V14.01,2013-08-26 15:15:00,
2013-08-26 11:30:00,74.3,62.6,30.24,NNW,328,1.0,4.0,67,0.00,,---,0.00,VWS V14.01,2013-08-26 15:30:00,
2013-08-26 11:45:00,75.1,63.4,30.24,SE,138,2.0,4.0,67,0.00,,---,0.00,VWS V14.01,2013-08-26 15:45:00,
2013-08-26 12:00:00,75.8,63.2,30.24,NW,305,1.0,3.0,65,0.00,,---,0.00,VWS V14.01,2013-08-26 16:00:00,
2013-08-26 12:15:00,76.7,63.6,30.24,NE,50,2.0,4.0,64,0.00,,---,0.00,VWS V14.01,2013-08-26 16:15:00,
2013-08-26 12:30:00,78.0,63.9,30.23,NE,36,1.0,4.0,62,0.00,,---,0.00,VWS V14.01,2013-08-26 16:30:00,
2013-08-26 12:45:00,78.4,64.3,30.23,NNE,32,1.0,3.0,62,0.00,,---,0.00,VWS V14.01,2013-08-26 16:45:00,
2013-08-26 13:00:00,79.3,63.7,30.22,ENE,69,0.0,3.0,59,0.00,,---,0.00,VWS V14.01,2013-08-26 17:00:00,
2013-08-26 13:15:00,80.0,63.9,30.21,North,356,2.0,4.0,58,0.00,,---,0.00,VWS V14.01,2013-08-26 17:15:00,
2013-08-26 13:30:00,80.5,64.4,30.21,SE,129,1.0,5.0,58,0.00,,---,0.00,VWS V14.01,2013-08-26 17:30:00,
2013-08-26 13:45:00,80.3,62.2,30.20,WNW,300,0.0,4.0,54,0.00,,---,0.00,VWS V14.01,2013-08-26 17:45:00,
2013-08-26 14:00:00,80.9,62.2,30.19,SSE,166,3.0,3.0,53,0.00,,---,0.00,VWS V14.01,2013-08-26 18:00:00,
2013-08-26 14:15:00,81.5,63.8,30.19,East,96,1.0,3.0,55,0.00,,---,0.00,VWS V14.01,2013-08-26 18:15:00,
2013-08-26 14:30:00,82.0,63.2,30.18,NW,324,1.0,2.0,53,0.00,,---,0.00,VWS V14.01,2013-08-26 18:30:00,
2013-08-26 14:45:00,82.6,63.2,30.17,WNW,300,0.0,3.0,52,0.00,,---,0.00,VWS V14.01,2013-08-26 18:45:00,
2013-08-26 15:00:00,81.9,60.3,30.16,NNE,18,0.0,3.0,48,0.00,,---,0.00,VWS V14.01,2013-08-26 19:00:00,
2013-08-26 15:15:00,81.9,60.3,30.15,East,92,2.0,2.0,48,0.00,,---,0.00,VWS V14.01,2013-08-26 19:15:00,
2013-08-26 15:30:00,82.9,60.6,30.15,West,276,1.0,4.0,47,0.00,,---,0.00,VWS V14.01,2013-08-26 19:30:00,
2013-08-26 15:45:00,83.1,60.2,30.14,SW,219,0.0,4.0,46,0.00,,---,0.00,VWS V14.01,2013-08-26 19:45:00,
2013-08-26 16:00:00,83.3,62.7,30.13,ESE,117,1.0,2.0,50,0.00,,---,0.00,VWS V14.01,2013-08-26 20:00:00,
2013-08-26 16:15:00,83.9,62.7,30.12,ENE,78,0.0,2.0,49,0.00,,---,0.00,VWS V14.01,2013-08-26 20:15:00,
2013-08-26 16:30:00,83.7,58.8,30.12,SE,127,0.0,3.0,43,0.00,,---,0.00,VWS V14.01,2013-08-26 20:30:00,
2013-08-26 16:45:00,84.1,59.2,30.11,NW,305,1.0,2.0,43,0.00,,---,0.00,VWS V14.01,2013-08-26 20:45:00,
2013-08-26 17:00:00,83.2,59.0,30.11,East,97,0.0,2.0,44,0.00,,---,0.00,VWS V14.01,2013-08-26 21:00:00,
2013-08-26 17:15:00,83.1,60.8,30.11,ENE,69,1.0,2.0,47,0.00,,---,0.00,VWS V14.01,2013-08-26 21:15:00,
2013-08-26 17:30:00,82.9,62.4,30.11,ENE,69,0.0,1.0,50,0.00,,---,0.00,VWS V14.01,2013-08-26 21:30:00,
2013-08-26 17:45:00,81.7,61.3,30.10,ENE,75,1.0,1.0,50,0.00,,---,0.00,VWS V14.01,2013-08-26 21:45:00,
2013-08-26 18:00:00,82.3,62.4,30.10,SSE,161,0.0,1.0,51,0.00,,---,0.00,VWS V14.01,2013-08-26 22:00:00,
2013-08-26 18:15:00,82.1,62.2,30.10,South,176,0.0,1.0,51,0.00,,---,0.00,VWS V14.01,2013-08-26 22:15:00,
2013-08-26 18:30:00,81.6,63.4,30.09,South,176,0.0,1.0,54,0.00,,---,0.00,VWS V14.01,2013-08-26 22:30:00,
2013-08-26 18:45:00,79.7,62.6,30.09,South,176,0.0,0.0,56,0.00,,---,0.00,VWS V14.01,2013-08-26 22:45:00,
2013-08-26 19:00:00,78.6,62.6,30.09,South,176,0.0,0.0,58,0.00,,---,0.00,VWS V14.01,2013-08-26 23:00:00,
2013-08-26 19:15:00,77.6,62.6,30.09,South,176,0.0,0.0,60,0.00,,---,0.00,VWS V14.01,2013-08-26 23:15:00,
2013-08-26 19:30:00,76.6,63.5,30.09,South,176,0.0,0.0,64,0.00,,---,0.00,VWS V14.01,2013-08-26 23:30:00,
2013-08-26 19:45:00,74.8,63.1,30.09,South,176,0.0,0.0,67,0.00,,---,0.00,VWS V14.01,2013-08-26 23:45:00,
2013-08-26 20:00:00,73.1,63.2,30.09,South,176,0.0,0.0,71,0.00,,---,0.00,VWS V14.01,2013-08-27 00:00:00,
2013-08-26 20:15:00,71.8,62.7,30.08,South,176,0.0,0.0,73,0.00,,---,0.00,VWS V14.01,2013-08-27 00:15:00,
2013-08-26 20:30:00,70.7,62.8,30.08,South,176,0.0,0.0,76,0.00,,---,0.00,VWS V14.01,2013-08-27 00:30:00,
2013-08-26 20:45:00,69.3,62.2,30.08,South,176,0.0,0.0,78,0.00,,---,0.00,VWS V14.01,2013-08-27 00:45:00,
2013-08-26 21:00:00,68.2,60.7,30.09,South,176,0.0,0.0,77,0.00,,---,0.00,VWS V14.01,2013-08-27 01:00:00,
2013-08-26 21:15:00,67.8,61.4,30.08,South,176,0.0,0.0,80,0.00,,---,0.00,VWS V14.01,2013-08-27 01:15:00,
2013-08-26 21:30:00,67.9,61.5,30.09,South,176,0.0,0.0,80,0.00,,---,0.00,VWS V14.01,2013-08-27 01:30:00,
2013-08-26 21:45:00,68.0,61.6,30.09,South,176,0.0,0.0,80,0.00,,---,0.00,VWS V14.01,2013-08-27 01:45:00,
2013-08-26 22:00:00,68.0,60.5,30.09,South,176,0.0,0.0,77,0.00,,---,0.00,VWS V14.01,2013-08-27 02:00:00,
2013-08-26 22:15:00,68.0,62.0,30.10,South,176,0.0,0.0,81,0.00,,---,0.00,VWS V14.01,2013-08-27 02:15:00,
2013-08-26 22:30:00,67.4,61.0,30.10,South,176,0.0,0.0,80,0.00,,---,0.00,VWS V14.01,2013-08-27 02:30:00,
2013-08-26 22:45:00,67.1,61.4,30.10,South,176,0.0,0.0,82,0.00,,---,0.00,VWS V14.01,2013-08-27 02:45:00,
2013-08-26 23:00:00,66.6,60.9,30.10,South,176,0.0,0.0,82,0.00,,---,0.00,VWS V14.01,2013-08-27 03:00:00,
2013-08-26 23:15:00,66.4,61.4,30.10,South,176,0.0,0.0,84,0.00,,---,0.00,VWS V14.01,2013-08-27 03:15:00,
2013-08-26 23:30:00,66.1,61.1,30.10,South,176,0.0,0.0,84,0.00,,---,0.00,VWS V14.01,2013-08-27 03:30:00,
2013-08-26 23:45:00,65.8,60.5,30.10,South,176,0.0,0.0,83,0.00,,---,0.00,VWS V14.01,2013-08-27 03:45:00,